sensor_id;sensor_type;location;lat;lon;timestamp;temperature;humidity
11764;DHT22;5939;56.522;14.950;2023-04-07T00:00:41;5.30;99.90
11764;DHT22;5939;56.522;14.950;2023-04-07T00:03:06;3.50;99.90
11764;DHT22;5939;56.522;14.950;2023-04-07T00:05:33;3.60;99.90
11764;DHT22;5939;56.522;14.950;2023-04-07T00:07:59;3.90;99.90
11764;DHT22;5939;56.522;14.950;2023-04-07T00:10:24;4.60;99.90
11764;DHT22;5939;56.522;14.950;2023-04-07T00:12:50;3.50;99.90
11764;DHT22;5939;56.522;14.950;2023-04-07T00:15:16;4.00;99.90
11764;DHT22;5939;56.522;14.950;2023-04-07T00:17:42;3.40;99.90
11764;DHT22;5939;56.522;14.950;2023-04-07T00:20:07;3.40;99.90
11764;DHT22;5939;56.522;14.950;2023-04-07T00:22:33;3.40;99.90
11764;DHT22;5939;56.522;14.950;2023-04-07T00:24:59;3.90;99.90
11764;DHT22;5939;56.522;14.950;2023-04-07T00:27:25;3.80;99.90
11764;DHT22;5939;56.522;14.950;2023-04-07T00:29:51;3.40;99.90
11764;DHT22;5939;56.522;14.950;2023-04-07T00:32:19;3.50;99.90
11764;DHT22;5939;56.522;14.950;2023-04-07T00:34:44;4.10;99.90
11764;DHT22;5939;56.522;14.950;2023-04-07T00:37:10;3.60;99.90
11764;DHT22;5939;56.522;14.950;2023-04-07T00:39:36;4.50;99.90
11764;DHT22;5939;56.522;14.950;2023-04-07T00:42:03;4.70;99.90
11764;DHT22;5939;56.522;14.950;2023-04-07T00:44:30;3.20;99.90
11764;DHT22;5939;56.522;14.950;2023-04-07T00:46:55;4.00;99.90
11764;DHT22;5939;56.522;14.950;2023-04-07T00:49:21;3.20;99.90
11764;DHT22;5939;56.522;14.950;2023-04-07T00:51:47;5.00;99.90
11764;DHT22;5939;56.522;14.950;2023-04-07T00:54:12;4.40;99.90
11764;DHT22;5939;56.522;14.950;2023-04-07T00:56:39;3.20;99.90
11764;DHT22;5939;56.522;14.950;2023-04-07T00:59:04;3.10;99.90
11764;DHT22;5939;56.522;14.950;2023-04-07T01:01:37;4.70;99.90
11764;DHT22;5939;56.522;14.950;2023-04-07T01:04:11;3.10;99.90
11764;DHT22;5939;56.522;14.950;2023-04-07T01:06:43;3.10;99.90
11764;DHT22;5939;56.522;14.950;2023-04-07T01:09:17;3.10;99.90
11764;DHT22;5939;56.522;14.950;2023-04-07T01:11:58;3.90;99.90
11764;DHT22;5939;56.522;14.950;2023-04-07T01:14:32;3.00;99.90
11764;DHT22;5939;56.522;14.950;2023-04-07T01:17:00;3.10;99.90
11764;DHT22;5939;56.522;14.950;2023-04-07T01:22:11;3.00;99.90
11764;DHT22;5939;56.522;14.950;2023-04-07T01:25:05;3.00;99.90
11764;DHT22;5939;56.522;14.950;2023-04-07T01:27:48;3.00;99.90
11764;DHT22;5939;56.522;14.950;2023-04-07T01:30:19;3.00;99.90
11764;DHT22;5939;56.522;14.950;2023-04-07T01:32:49;2.90;99.90
11764;DHT22;5939;56.522;14.950;2023-04-07T01:35:17;2.90;99.90
11764;DHT22;5939;56.522;14.950;2023-04-07T01:37:44;2.90;99.90
11764;DHT22;5939;56.522;14.950;2023-04-07T01:40:14;2.90;99.90
11764;DHT22;5939;56.522;14.950;2023-04-07T01:42:41;2.90;99.90
11764;DHT22;5939;56.522;14.950;2023-04-07T01:45:07;4.30;99.90
11764;DHT22;5939;56.522;14.950;2023-04-07T01:47:35;2.90;99.90
11764;DHT22;5939;56.522;14.950;2023-04-07T01:50:02;4.50;99.90
11764;DHT22;5939;56.522;14.950;2023-04-07T01:52:35;2.90;99.90
11764;DHT22;5939;56.522;14.950;2023-04-07T01:55:05;3.50;99.90
11764;DHT22;5939;56.522;14.950;2023-04-07T01:57:31;2.90;99.90
11764;DHT22;5939;56.522;14.950;2023-04-07T01:59:57;3.60;99.90
11764;DHT22;5939;56.522;14.950;2023-04-07T02:02:22;2.80;99.90
11764;DHT22;5939;56.522;14.950;2023-04-07T02:05:00;3.80;99.90
11764;DHT22;5939;56.522;14.950;2023-04-07T02:10:12;2.80;99.90
11764;DHT22;5939;56.522;14.950;2023-04-07T02:12:40;2.90;99.90
11764;DHT22;5939;56.522;14.950;2023-04-07T02:15:08;2.80;99.90
11764;DHT22;5939;56.522;14.950;2023-04-07T02:17:39;2.80;99.90
11764;DHT22;5939;56.522;14.950;2023-04-07T02:20:07;2.80;99.90
11764;DHT22;5939;56.522;14.950;2023-04-07T02:22:34;2.80;99.90
11764;DHT22;5939;56.522;14.950;2023-04-07T02:25:01;3.30;99.90
11764;DHT22;5939;56.522;14.950;2023-04-07T02:27:26;2.80;99.90
11764;DHT22;5939;56.522;14.950;2023-04-07T02:29:52;2.90;99.90
11764;DHT22;5939;56.522;14.950;2023-04-07T02:32:18;2.80;99.90
11764;DHT22;5939;56.522;14.950;2023-04-07T02:34:44;4.20;99.90
11764;DHT22;5939;56.522;14.950;2023-04-07T02:37:10;2.80;99.90
11764;DHT22;5939;56.522;14.950;2023-04-07T02:39:36;2.70;99.90
11764;DHT22;5939;56.522;14.950;2023-04-07T02:42:01;3.80;99.90
11764;DHT22;5939;56.522;14.950;2023-04-07T02:44:27;2.70;99.90
11764;DHT22;5939;56.522;14.950;2023-04-07T02:46:52;2.90;99.90
11764;DHT22;5939;56.522;14.950;2023-04-07T02:49:18;2.90;99.90
11764;DHT22;5939;56.522;14.950;2023-04-07T02:51:44;4.10;99.90
11764;DHT22;5939;56.522;14.950;2023-04-07T02:54:11;2.70;99.90
11764;DHT22;5939;56.522;14.950;2023-04-07T02:56:36;2.70;99.90
11764;DHT22;5939;56.522;14.950;2023-04-07T02:59:02;2.70;99.90
11764;DHT22;5939;56.522;14.950;2023-04-07T03:01:28;3.50;99.90
11764;DHT22;5939;56.522;14.950;2023-04-07T03:03:53;2.70;99.90
11764;DHT22;5939;56.522;14.950;2023-04-07T03:06:19;2.70;99.90
11764;DHT22;5939;56.522;14.950;2023-04-07T03:08:45;2.70;99.90
11764;DHT22;5939;56.522;14.950;2023-04-07T03:11:10;2.70;99.90
11764;DHT22;5939;56.522;14.950;2023-04-07T03:13:36;2.70;99.90
11764;DHT22;5939;56.522;14.950;2023-04-07T03:16:02;2.70;99.90
11764;DHT22;5939;56.522;14.950;2023-04-07T03:18:27;2.70;99.90
11764;DHT22;5939;56.522;14.950;2023-04-07T03:20:53;3.70;99.90
11764;DHT22;5939;56.522;14.950;2023-04-07T03:23:20;3.90;99.90
11764;DHT22;5939;56.522;14.950;2023-04-07T03:25:48;4.30;99.90
11764;DHT22;5939;56.522;14.950;2023-04-07T03:28:14;4.50;99.90
11764;DHT22;5939;56.522;14.950;2023-04-07T03:30:40;4.90;99.90
11764;DHT22;5939;56.522;14.950;2023-04-07T03:33:05;2.70;99.90
11764;DHT22;5939;56.522;14.950;2023-04-07T03:35:31;4.10;99.90
11764;DHT22;5939;56.522;14.950;2023-04-07T03:37:57;3.00;99.90
11764;DHT22;5939;56.522;14.950;2023-04-07T03:40:22;2.70;99.90
11764;DHT22;5939;56.522;14.950;2023-04-07T03:42:48;3.60;99.90
11764;DHT22;5939;56.522;14.950;2023-04-07T03:45:14;2.70;99.90
11764;DHT22;5939;56.522;14.950;2023-04-07T03:47:40;2.70;99.90
11764;DHT22;5939;56.522;14.950;2023-04-07T03:50:06;2.80;99.90
11764;DHT22;5939;56.522;14.950;2023-04-07T03:52:32;2.70;99.90
11764;DHT22;5939;56.522;14.950;2023-04-07T03:54:58;2.70;99.90
11764;DHT22;5939;56.522;14.950;2023-04-07T03:57:23;2.70;99.90
11764;DHT22;5939;56.522;14.950;2023-04-07T03:59:49;2.70;99.90
11764;DHT22;5939;56.522;14.950;2023-04-07T04:02:16;2.70;99.90
11764;DHT22;5939;56.522;14.950;2023-04-07T04:04:42;2.80;99.90
11764;DHT22;5939;56.522;14.950;2023-04-07T04:07:07;3.70;99.90
11764;DHT22;5939;56.522;14.950;2023-04-07T04:09:33;2.70;99.90
11764;DHT22;5939;56.522;14.950;2023-04-07T04:11:58;2.70;99.90
11764;DHT22;5939;56.522;14.950;2023-04-07T04:14:24;2.70;99.90
11764;DHT22;5939;56.522;14.950;2023-04-07T04:16:50;2.70;99.90
11764;DHT22;5939;56.522;14.950;2023-04-07T04:19:16;2.70;99.90
11764;DHT22;5939;56.522;14.950;2023-04-07T04:21:41;2.70;99.90
11764;DHT22;5939;56.522;14.950;2023-04-07T04:24:07;3.50;99.90
11764;DHT22;5939;56.522;14.950;2023-04-07T04:26:33;4.20;99.90
11764;DHT22;5939;56.522;14.950;2023-04-07T04:28:58;3.30;99.90
11764;DHT22;5939;56.522;14.950;2023-04-07T04:31:24;4.20;99.90
11764;DHT22;5939;56.522;14.950;2023-04-07T04:33:50;2.70;99.90
11764;DHT22;5939;56.522;14.950;2023-04-07T04:36:16;3.90;99.90
11764;DHT22;5939;56.522;14.950;2023-04-07T04:38:42;3.70;99.90
11764;DHT22;5939;56.522;14.950;2023-04-07T04:41:08;2.70;99.90
11764;DHT22;5939;56.522;14.950;2023-04-07T04:43:33;2.70;99.90
11764;DHT22;5939;56.522;14.950;2023-04-07T04:45:59;3.10;99.90
11764;DHT22;5939;56.522;14.950;2023-04-07T04:48:25;3.80;99.90
11764;DHT22;5939;56.522;14.950;2023-04-07T04:50:50;4.10;99.90
11764;DHT22;5939;56.522;14.950;2023-04-07T04:53:16;4.00;99.90
11764;DHT22;5939;56.522;14.950;2023-04-07T04:55:41;3.40;99.90
11764;DHT22;5939;56.522;14.950;2023-04-07T04:58:11;4.10;99.90
11764;DHT22;5939;56.522;14.950;2023-04-07T05:00:37;3.50;99.90
11764;DHT22;5939;56.522;14.950;2023-04-07T05:03:02;4.10;99.90
11764;DHT22;5939;56.522;14.950;2023-04-07T05:05:28;2.70;99.90
11764;DHT22;5939;56.522;14.950;2023-04-07T05:07:54;2.70;99.90
11764;DHT22;5939;56.522;14.950;2023-04-07T05:10:20;2.90;99.90
11764;DHT22;5939;56.522;14.950;2023-04-07T05:12:46;2.90;99.90
11764;DHT22;5939;56.522;14.950;2023-04-07T05:15:11;2.70;99.90
11764;DHT22;5939;56.522;14.950;2023-04-07T05:17:37;2.70;99.90
11764;DHT22;5939;56.522;14.950;2023-04-07T05:20:03;2.70;99.90
11764;DHT22;5939;56.522;14.950;2023-04-07T05:22:29;2.70;99.90
11764;DHT22;5939;56.522;14.950;2023-04-07T05:24:55;2.70;99.90
11764;DHT22;5939;56.522;14.950;2023-04-07T05:27:20;2.70;99.90
11764;DHT22;5939;56.522;14.950;2023-04-07T05:29:46;3.70;99.90
11764;DHT22;5939;56.522;14.950;2023-04-07T05:32:11;2.90;99.90
11764;DHT22;5939;56.522;14.950;2023-04-07T05:34:37;4.70;99.90
11764;DHT22;5939;56.522;14.950;2023-04-07T05:37:03;4.10;99.90
11764;DHT22;5939;56.522;14.950;2023-04-07T05:39:28;2.70;99.90
11764;DHT22;5939;56.522;14.950;2023-04-07T05:41:54;2.80;99.90
11764;DHT22;5939;56.522;14.950;2023-04-07T05:44:21;2.90;99.90
11764;DHT22;5939;56.522;14.950;2023-04-07T05:46:47;2.70;99.90
11764;DHT22;5939;56.522;14.950;2023-04-07T05:49:13;2.70;99.90
11764;DHT22;5939;56.522;14.950;2023-04-07T05:51:38;2.70;99.90
11764;DHT22;5939;56.522;14.950;2023-04-07T05:54:04;3.60;99.90
11764;DHT22;5939;56.522;14.950;2023-04-07T05:56:30;2.70;99.90
11764;DHT22;5939;56.522;14.950;2023-04-07T05:58:56;2.70;99.90
11764;DHT22;5939;56.522;14.950;2023-04-07T06:01:23;2.70;99.90
11764;DHT22;5939;56.522;14.950;2023-04-07T06:03:49;2.70;99.90
11764;DHT22;5939;56.522;14.950;2023-04-07T06:06:14;2.70;99.90
11764;DHT22;5939;56.522;14.950;2023-04-07T06:08:40;2.70;99.90
11764;DHT22;5939;56.522;14.950;2023-04-07T06:11:06;2.70;99.90
11764;DHT22;5939;56.522;14.950;2023-04-07T06:13:31;3.50;99.90
11764;DHT22;5939;56.522;14.950;2023-04-07T06:15:57;3.80;99.90
11764;DHT22;5939;56.522;14.950;2023-04-07T06:18:23;2.80;99.90
11764;DHT22;5939;56.522;14.950;2023-04-07T06:20:49;4.00;99.90
11764;DHT22;5939;56.522;14.950;2023-04-07T06:23:14;2.80;99.90
11764;DHT22;5939;56.522;14.950;2023-04-07T06:25:40;2.80;99.90
11764;DHT22;5939;56.522;14.950;2023-04-07T06:28:06;3.40;99.90
11764;DHT22;5939;56.522;14.950;2023-04-07T06:30:32;2.80;99.90
11764;DHT22;5939;56.522;14.950;2023-04-07T06:32:58;2.80;99.90
11764;DHT22;5939;56.522;14.950;2023-04-07T06:35:24;2.80;99.90
11764;DHT22;5939;56.522;14.950;2023-04-07T06:37:51;2.80;99.90
11764;DHT22;5939;56.522;14.950;2023-04-07T06:40:17;2.80;99.90
11764;DHT22;5939;56.522;14.950;2023-04-07T06:42:42;2.80;99.90
11764;DHT22;5939;56.522;14.950;2023-04-07T06:45:08;4.10;99.90
11764;DHT22;5939;56.522;14.950;2023-04-07T06:47:34;2.80;99.90
11764;DHT22;5939;56.522;14.950;2023-04-07T06:50:00;2.80;99.90
11764;DHT22;5939;56.522;14.950;2023-04-07T06:52:25;4.00;99.90
11764;DHT22;5939;56.522;14.950;2023-04-07T06:54:51;4.40;99.90
11764;DHT22;5939;56.522;14.950;2023-04-07T06:57:17;2.80;99.90
11764;DHT22;5939;56.522;14.950;2023-04-07T06:59:42;3.10;99.90
11764;DHT22;5939;56.522;14.950;2023-04-07T07:02:08;2.90;99.90
11764;DHT22;5939;56.522;14.950;2023-04-07T07:04:34;3.40;99.90
11764;DHT22;5939;56.522;14.950;2023-04-07T07:06:59;3.80;99.90
11764;DHT22;5939;56.522;14.950;2023-04-07T07:09:25;2.90;99.90
11764;DHT22;5939;56.522;14.950;2023-04-07T07:11:52;2.90;99.90
11764;DHT22;5939;56.522;14.950;2023-04-07T07:14:17;3.90;99.90
11764;DHT22;5939;56.522;14.950;2023-04-07T07:16:43;2.90;99.90
11764;DHT22;5939;56.522;14.950;2023-04-07T07:19:09;2.90;99.90
11764;DHT22;5939;56.522;14.950;2023-04-07T07:21:35;2.90;99.90
11764;DHT22;5939;56.522;14.950;2023-04-07T07:24:00;2.90;99.90
11764;DHT22;5939;56.522;14.950;2023-04-07T07:26:26;2.90;99.90
11764;DHT22;5939;56.522;14.950;2023-04-07T07:28:52;2.90;99.90
11764;DHT22;5939;56.522;14.950;2023-04-07T07:31:18;3.00;99.90
11764;DHT22;5939;56.522;14.950;2023-04-07T07:33:43;3.10;99.90
11764;DHT22;5939;56.522;14.950;2023-04-07T07:36:10;3.00;99.90
11764;DHT22;5939;56.522;14.950;2023-04-07T07:38:37;4.00;99.90
11764;DHT22;5939;56.522;14.950;2023-04-07T07:41:03;3.10;99.90
11764;DHT22;5939;56.522;14.950;2023-04-07T07:43:30;3.50;99.90
11764;DHT22;5939;56.522;14.950;2023-04-07T07:45:56;4.30;99.90
11764;DHT22;5939;56.522;14.950;2023-04-07T07:48:22;3.00;99.90
11764;DHT22;5939;56.522;14.950;2023-04-07T07:50:47;4.50;99.90
11764;DHT22;5939;56.522;14.950;2023-04-07T07:53:13;3.20;99.90
11764;DHT22;5939;56.522;14.950;2023-04-07T07:55:39;3.20;99.90
11764;DHT22;5939;56.522;14.950;2023-04-07T07:58:05;3.20;99.90
11764;DHT22;5939;56.522;14.950;2023-04-07T08:00:31;4.00;99.90
11764;DHT22;5939;56.522;14.950;2023-04-07T08:02:56;4.60;99.90
11764;DHT22;5939;56.522;14.950;2023-04-07T08:05:22;3.70;99.90
11764;DHT22;5939;56.522;14.950;2023-04-07T08:07:48;3.30;99.90
11764;DHT22;5939;56.522;14.950;2023-04-07T08:10:13;4.60;99.90
11764;DHT22;5939;56.522;14.950;2023-04-07T08:12:40;3.80;99.90
11764;DHT22;5939;56.522;14.950;2023-04-07T08:15:06;3.40;99.90
11764;DHT22;5939;56.522;14.950;2023-04-07T08:17:34;3.50;99.90
11764;DHT22;5939;56.522;14.950;2023-04-07T08:20:00;4.80;99.90
11764;DHT22;5939;56.522;14.950;2023-04-07T08:22:26;5.80;99.90
11764;DHT22;5939;56.522;14.950;2023-04-07T08:24:52;4.40;99.90
11764;DHT22;5939;56.522;14.950;2023-04-07T08:27:17;6.40;99.90
11764;DHT22;5939;56.522;14.950;2023-04-07T08:29:43;6.30;99.90
11764;DHT22;5939;56.522;14.950;2023-04-07T08:32:09;5.00;99.90
11764;DHT22;5939;56.522;14.950;2023-04-07T08:34:35;4.60;99.90
11764;DHT22;5939;56.522;14.950;2023-04-07T08:37:00;3.80;99.90
11764;DHT22;5939;56.522;14.950;2023-04-07T08:39:27;3.90;99.90
11764;DHT22;5939;56.522;14.950;2023-04-07T08:41:53;3.90;99.90
11764;DHT22;5939;56.522;14.950;2023-04-07T08:44:21;3.90;99.90
11764;DHT22;5939;56.522;14.950;2023-04-07T08:46:50;5.60;99.90
11764;DHT22;5939;56.522;14.950;2023-04-07T08:49:18;6.40;99.90
11764;DHT22;5939;56.522;14.950;2023-04-07T08:51:45;5.20;99.90
11764;DHT22;5939;56.522;14.950;2023-04-07T08:54:16;4.60;99.90
11764;DHT22;5939;56.522;14.950;2023-04-07T08:56:43;5.30;99.90
11764;DHT22;5939;56.522;14.950;2023-04-07T08:59:14;6.00;99.90
11764;DHT22;5939;56.522;14.950;2023-04-07T09:01:40;4.50;99.90
11764;DHT22;5939;56.522;14.950;2023-04-07T09:04:07;4.20;99.90
11764;DHT22;5939;56.522;14.950;2023-04-07T09:06:33;5.20;99.90
11764;DHT22;5939;56.522;14.950;2023-04-07T09:09:03;6.50;99.90
11764;DHT22;5939;56.522;14.950;2023-04-07T09:11:37;5.30;99.90
11764;DHT22;5939;56.522;14.950;2023-04-07T09:14:03;4.40;99.90
11764;DHT22;5939;56.522;14.950;2023-04-07T09:16:29;5.60;99.90
11764;DHT22;5939;56.522;14.950;2023-04-07T09:18:55;4.80;99.90
11764;DHT22;5939;56.522;14.950;2023-04-07T09:21:21;5.30;99.90
11764;DHT22;5939;56.522;14.950;2023-04-07T09:23:48;5.60;99.90
11764;DHT22;5939;56.522;14.950;2023-04-07T09:26:18;4.50;99.90
11764;DHT22;5939;56.522;14.950;2023-04-07T09:28:52;5.30;99.90
11764;DHT22;5939;56.522;14.950;2023-04-07T09:31:19;4.80;99.90
11764;DHT22;5939;56.522;14.950;2023-04-07T09:33:49;5.30;99.90
11764;DHT22;5939;56.522;14.950;2023-04-07T09:36:15;4.70;99.90
11764;DHT22;5939;56.522;14.950;2023-04-07T09:38:44;5.90;99.90
11764;DHT22;5939;56.522;14.950;2023-04-07T09:41:14;5.00;99.90
11764;DHT22;5939;56.522;14.950;2023-04-07T09:43:42;4.80;99.90
11764;DHT22;5939;56.522;14.950;2023-04-07T09:46:18;6.00;99.90
11764;DHT22;5939;56.522;14.950;2023-04-07T09:48:45;4.90;99.90
11764;DHT22;5939;56.522;14.950;2023-04-07T09:51:15;5.10;99.90
11764;DHT22;5939;56.522;14.950;2023-04-07T09:53:50;5.30;99.90
11764;DHT22;5939;56.522;14.950;2023-04-07T09:56:19;4.90;99.90
11764;DHT22;5939;56.522;14.950;2023-04-07T09:58:47;5.70;99.90
11764;DHT22;5939;56.522;14.950;2023-04-07T10:01:15;5.00;99.90
11764;DHT22;5939;56.522;14.950;2023-04-07T10:03:42;5.50;99.90
11764;DHT22;5939;56.522;14.950;2023-04-07T10:06:08;5.10;99.90
11764;DHT22;5939;56.522;14.950;2023-04-07T10:08:39;5.60;99.90
11764;DHT22;5939;56.522;14.950;2023-04-07T10:11:05;5.40;99.90
11764;DHT22;5939;56.522;14.950;2023-04-07T10:13:33;6.30;99.90
11764;DHT22;5939;56.522;14.950;2023-04-07T10:15:59;6.20;99.90
11764;DHT22;5939;56.522;14.950;2023-04-07T10:18:30;6.70;99.90
11764;DHT22;5939;56.522;14.950;2023-04-07T10:21:00;5.20;99.90
11764;DHT22;5939;56.522;14.950;2023-04-07T10:23:52;5.30;99.90
11764;DHT22;5939;56.522;14.950;2023-04-07T10:26:26;5.30;99.90
11764;DHT22;5939;56.522;14.950;2023-04-07T10:29:04;5.30;99.90
11764;DHT22;5939;56.522;14.950;2023-04-07T10:31:31;5.30;99.90
11764;DHT22;5939;56.522;14.950;2023-04-07T10:33:57;6.30;99.90
11764;DHT22;5939;56.522;14.950;2023-04-07T10:36:23;5.50;99.90
11764;DHT22;5939;56.522;14.950;2023-04-07T10:41:40;5.50;99.90
11764;DHT22;5939;56.522;14.950;2023-04-07T10:44:43;5.70;99.90
11764;DHT22;5939;56.522;14.950;2023-04-07T10:49:21;6.70;99.90
11764;DHT22;5939;56.522;14.950;2023-04-07T10:54:39;5.70;99.90
11764;DHT22;5939;56.522;14.950;2023-04-07T10:57:05;6.10;99.90
11764;DHT22;5939;56.522;14.950;2023-04-07T10:59:33;6.60;99.90
11764;DHT22;5939;56.522;14.950;2023-04-07T11:04:47;5.80;99.90
11764;DHT22;5939;56.522;14.950;2023-04-07T11:07:14;6.80;99.90
11764;DHT22;5939;56.522;14.950;2023-04-07T11:09:41;6.70;99.90
11764;DHT22;5939;56.522;14.950;2023-04-07T11:12:07;6.60;99.90
11764;DHT22;5939;56.522;14.950;2023-04-07T11:14:33;6.00;99.90
11764;DHT22;5939;56.522;14.950;2023-04-07T11:17:02;6.20;99.90
11764;DHT22;5939;56.522;14.950;2023-04-07T11:19:28;6.00;99.90
11764;DHT22;5939;56.522;14.950;2023-04-07T11:22:14;6.40;99.90
11764;DHT22;5939;56.522;14.950;2023-04-07T11:24:40;6.10;99.90
11764;DHT22;5939;56.522;14.950;2023-04-07T11:27:11;6.90;99.90
11764;DHT22;5939;56.522;14.950;2023-04-07T11:29:36;6.10;99.90
11764;DHT22;5939;56.522;14.950;2023-04-07T11:32:03;6.10;99.90
11764;DHT22;5939;56.522;14.950;2023-04-07T11:34:33;6.20;99.90
11764;DHT22;5939;56.522;14.950;2023-04-07T11:37:25;6.50;99.90
11764;DHT22;5939;56.522;14.950;2023-04-07T11:39:54;6.20;99.90
11764;DHT22;5939;56.522;14.950;2023-04-07T11:42:39;6.30;99.90
11764;DHT22;5939;56.522;14.950;2023-04-07T11:45:14;6.30;99.90
11764;DHT22;5939;56.522;14.950;2023-04-07T11:47:40;6.30;99.90
11764;DHT22;5939;56.522;14.950;2023-04-07T11:50:07;6.40;99.90
11764;DHT22;5939;56.522;14.950;2023-04-07T11:52:47;6.40;99.90
11764;DHT22;5939;56.522;14.950;2023-04-07T11:55:22;6.50;99.90
11764;DHT22;5939;56.522;14.950;2023-04-07T11:57:51;6.50;99.90
11764;DHT22;5939;56.522;14.950;2023-04-07T12:00:17;6.50;99.90
11764;DHT22;5939;56.522;14.950;2023-04-07T12:02:43;6.50;99.90
11764;DHT22;5939;56.522;14.950;2023-04-07T12:05:09;6.60;99.90
11764;DHT22;5939;56.522;14.950;2023-04-07T12:07:36;6.60;99.90
11764;DHT22;5939;56.522;14.950;2023-04-07T12:10:22;6.60;99.90
11764;DHT22;5939;56.522;14.950;2023-04-07T12:12:50;6.70;99.90
11764;DHT22;5939;56.522;14.950;2023-04-07T12:15:16;6.70;99.90
11764;DHT22;5939;56.522;14.950;2023-04-07T12:17:47;6.70;99.90
11764;DHT22;5939;56.522;14.950;2023-04-07T12:20:14;6.70;99.90
11764;DHT22;5939;56.522;14.950;2023-04-07T12:22:41;6.80;99.90
11764;DHT22;5939;56.522;14.950;2023-04-07T12:25:07;6.80;99.90
11764;DHT22;5939;56.522;14.950;2023-04-07T12:27:32;6.90;99.90
11764;DHT22;5939;56.522;14.950;2023-04-07T12:29:58;6.90;99.90
11764;DHT22;5939;56.522;14.950;2023-04-07T12:32:24;6.90;99.90
11764;DHT22;5939;56.522;14.950;2023-04-07T12:34:50;7.00;99.90
11764;DHT22;5939;56.522;14.950;2023-04-07T12:37:16;7.10;99.90
11764;DHT22;5939;56.522;14.950;2023-04-07T12:39:41;7.10;99.90
11764;DHT22;5939;56.522;14.950;2023-04-07T12:42:07;7.10;99.90
11764;DHT22;5939;56.522;14.950;2023-04-07T12:44:36;7.90;99.90
11764;DHT22;5939;56.522;14.950;2023-04-07T12:47:02;7.70;99.90
11764;DHT22;5939;56.522;14.950;2023-04-07T12:49:28;7.80;99.90
11764;DHT22;5939;56.522;14.950;2023-04-07T12:51:53;7.20;99.90
11764;DHT22;5939;56.522;14.950;2023-04-07T12:54:20;7.30;99.90
11764;DHT22;5939;56.522;14.950;2023-04-07T12:56:46;7.30;99.90
11764;DHT22;5939;56.522;14.950;2023-04-07T12:59:12;7.30;99.90
11764;DHT22;5939;56.522;14.950;2023-04-07T13:01:38;7.30;99.90
11764;DHT22;5939;56.522;14.950;2023-04-07T13:04:04;7.40;99.90
11764;DHT22;5939;56.522;14.950;2023-04-07T13:06:30;7.40;99.90
11764;DHT22;5939;56.522;14.950;2023-04-07T13:08:56;7.50;99.90
11764;DHT22;5939;56.522;14.950;2023-04-07T13:11:22;7.50;99.90
11764;DHT22;5939;56.522;14.950;2023-04-07T13:13:48;7.50;99.90
11764;DHT22;5939;56.522;14.950;2023-04-07T13:16:14;7.50;99.90
11764;DHT22;5939;56.522;14.950;2023-04-07T13:18:39;7.60;99.90
11764;DHT22;5939;56.522;14.950;2023-04-07T13:21:05;7.60;99.90
11764;DHT22;5939;56.522;14.950;2023-04-07T13:23:32;7.60;99.90
11764;DHT22;5939;56.522;14.950;2023-04-07T13:25:58;7.60;99.90
11764;DHT22;5939;56.522;14.950;2023-04-07T13:28:24;7.60;99.90
11764;DHT22;5939;56.522;14.950;2023-04-07T13:30:49;7.70;99.90
11764;DHT22;5939;56.522;14.950;2023-04-07T13:33:15;7.70;99.90
11764;DHT22;5939;56.522;14.950;2023-04-07T13:35:41;7.70;99.90
11764;DHT22;5939;56.522;14.950;2023-04-07T13:38:07;8.10;99.90
11764;DHT22;5939;56.522;14.950;2023-04-07T13:40:33;7.90;99.90
11764;DHT22;5939;56.522;14.950;2023-04-07T13:42:59;7.80;99.90
11764;DHT22;5939;56.522;14.950;2023-04-07T13:45:25;7.90;99.90
11764;DHT22;5939;56.522;14.950;2023-04-07T13:47:51;8.50;99.90
11764;DHT22;5939;56.522;14.950;2023-04-07T13:50:17;8.00;99.90
11764;DHT22;5939;56.522;14.950;2023-04-07T13:52:43;7.90;99.90
11764;DHT22;5939;56.522;14.950;2023-04-07T13:55:08;7.90;99.90
11764;DHT22;5939;56.522;14.950;2023-04-07T13:57:34;7.90;99.90
11764;DHT22;5939;56.522;14.950;2023-04-07T14:00:00;7.90;99.90
11764;DHT22;5939;56.522;14.950;2023-04-07T14:02:26;8.00;99.90
11764;DHT22;5939;56.522;14.950;2023-04-07T14:04:53;7.90;99.90
11764;DHT22;5939;56.522;14.950;2023-04-07T14:07:19;8.00;99.90
11764;DHT22;5939;56.522;14.950;2023-04-07T14:09:46;8.10;99.90
11764;DHT22;5939;56.522;14.950;2023-04-07T14:12:12;8.30;99.90
11764;DHT22;5939;56.522;14.950;2023-04-07T14:14:39;8.00;99.90
11764;DHT22;5939;56.522;14.950;2023-04-07T14:17:04;8.00;99.90
11764;DHT22;5939;56.522;14.950;2023-04-07T14:19:31;8.30;99.90
11764;DHT22;5939;56.522;14.950;2023-04-07T14:21:58;8.00;99.90
11764;DHT22;5939;56.522;14.950;2023-04-07T14:24:23;8.10;99.90
11764;DHT22;5939;56.522;14.950;2023-04-07T14:26:49;8.00;99.90
11764;DHT22;5939;56.522;14.950;2023-04-07T14:29:15;8.10;99.90
11764;DHT22;5939;56.522;14.950;2023-04-07T14:31:41;8.10;99.90
11764;DHT22;5939;56.522;14.950;2023-04-07T14:34:07;8.10;99.90
11764;DHT22;5939;56.522;14.950;2023-04-07T14:36:33;8.20;99.90
11764;DHT22;5939;56.522;14.950;2023-04-07T14:38:59;8.10;99.90
11764;DHT22;5939;56.522;14.950;2023-04-07T14:41:25;8.10;99.90
11764;DHT22;5939;56.522;14.950;2023-04-07T14:43:51;8.10;99.90
11764;DHT22;5939;56.522;14.950;2023-04-07T14:46:24;8.10;99.90
11764;DHT22;5939;56.522;14.950;2023-04-07T14:48:52;8.10;99.90
11764;DHT22;5939;56.522;14.950;2023-04-07T14:51:18;8.10;99.90
11764;DHT22;5939;56.522;14.950;2023-04-07T14:53:43;8.10;99.90
11764;DHT22;5939;56.522;14.950;2023-04-07T14:56:13;8.10;99.90
11764;DHT22;5939;56.522;14.950;2023-04-07T14:58:40;8.10;99.90
11764;DHT22;5939;56.522;14.950;2023-04-07T15:01:06;8.30;99.90
11764;DHT22;5939;56.522;14.950;2023-04-07T15:03:32;8.20;99.90
11764;DHT22;5939;56.522;14.950;2023-04-07T15:05:59;8.20;99.90
11764;DHT22;5939;56.522;14.950;2023-04-07T15:08:24;8.20;99.90
11764;DHT22;5939;56.522;14.950;2023-04-07T15:10:50;8.10;99.90
11764;DHT22;5939;56.522;14.950;2023-04-07T15:13:16;8.10;99.90
11764;DHT22;5939;56.522;14.950;2023-04-07T15:15:41;8.10;99.90
11764;DHT22;5939;56.522;14.950;2023-04-07T15:18:07;8.10;99.90
11764;DHT22;5939;56.522;14.950;2023-04-07T15:20:33;8.10;99.90
11764;DHT22;5939;56.522;14.950;2023-04-07T15:22:58;8.10;99.90
11764;DHT22;5939;56.522;14.950;2023-04-07T15:25:25;8.30;99.90
11764;DHT22;5939;56.522;14.950;2023-04-07T15:27:51;8.10;99.90
11764;DHT22;5939;56.522;14.950;2023-04-07T15:30:17;8.30;99.90
11764;DHT22;5939;56.522;14.950;2023-04-07T15:32:56;8.10;99.90
11764;DHT22;5939;56.522;14.950;2023-04-07T15:35:22;8.10;99.90
11764;DHT22;5939;56.522;14.950;2023-04-07T15:37:47;8.10;99.90
11764;DHT22;5939;56.522;14.950;2023-04-07T15:40:13;8.50;99.90
11764;DHT22;5939;56.522;14.950;2023-04-07T15:42:39;8.10;99.90
11764;DHT22;5939;56.522;14.950;2023-04-07T15:45:05;8.20;99.90
11764;DHT22;5939;56.522;14.950;2023-04-07T15:47:31;8.10;99.90
11764;DHT22;5939;56.522;14.950;2023-04-07T15:49:57;8.20;99.90
11764;DHT22;5939;56.522;14.950;2023-04-07T15:52:23;8.10;99.90
11764;DHT22;5939;56.522;14.950;2023-04-07T15:54:49;8.10;99.90
11764;DHT22;5939;56.522;14.950;2023-04-07T15:57:15;8.40;99.90
11764;DHT22;5939;56.522;14.950;2023-04-07T15:59:41;8.10;99.90